sensor_id;sensor_type;location;lat;lon;timestamp;P1;durP1;ratioP1;P2;durP2;ratioP2
47161;SDS011;32921;53.256;8.198;2023-07-28T00:00:14;0.17;;;0.17;;
47161;SDS011;32921;53.256;8.198;2023-07-28T00:02:39;0.13;;;0.10;;
47161;SDS011;32921;53.256;8.198;2023-07-28T00:05:05;0.00;;;0.00;;
47161;SDS011;32921;53.256;8.198;2023-07-28T00:07:31;0.20;;;0.20;;
47161;SDS011;32921;53.256;8.198;2023-07-28T00:09:59;0.22;;;0.20;;
47161;SDS011;32921;53.256;8.198;2023-07-28T00:12:24;0.52;;;0.52;;
47161;SDS011;32921;53.256;8.198;2023-07-28T00:14:50;0.47;;;0.40;;
47161;SDS011;32921;53.256;8.198;2023-07-28T00:17:15;0.10;;;0.10;;
47161;SDS011;32921;53.256;8.198;2023-07-28T00:19:41;0.50;;;0.28;;
47161;SDS011;32921;53.256;8.198;2023-07-28T00:22:06;0.43;;;0.38;;
47161;SDS011;32921;53.256;8.198;2023-07-28T00:24:32;0.17;;;0.10;;
47161;SDS011;32921;53.256;8.198;2023-07-28T00:26:57;0.45;;;0.35;;
47161;SDS011;32921;53.256;8.198;2023-07-28T00:29:23;0.30;;;0.28;;
47161;SDS011;32921;53.256;8.198;2023-07-28T00:31:49;0.00;;;0.00;;
47161;SDS011;32921;53.256;8.198;2023-07-28T00:34:14;0.20;;;0.20;;
47161;SDS011;32921;53.256;8.198;2023-07-28T00:36:40;2.92;;;0.95;;
47161;SDS011;32921;53.256;8.198;2023-07-28T00:39:05;0.10;;;0.10;;
47161;SDS011;32921;53.256;8.198;2023-07-28T00:41:31;0.10;;;0.10;;
47161;SDS011;32921;53.256;8.198;2023-07-28T00:43:57;0.10;;;0.10;;
47161;SDS011;32921;53.256;8.198;2023-07-28T00:46:22;0.05;;;0.05;;
47161;SDS011;32921;53.256;8.198;2023-07-28T00:48:48;0.20;;;0.20;;
47161;SDS011;32921;53.256;8.198;2023-07-28T00:51:13;0.93;;;0.43;;
47161;SDS011;32921;53.256;8.198;2023-07-28T00:53:39;1.25;;;0.45;;
47161;SDS011;32921;53.256;8.198;2023-07-28T00:56:05;0.20;;;0.20;;
47161;SDS011;32921;53.256;8.198;2023-07-28T00:58:32;0.70;;;0.40;;
47161;SDS011;32921;53.256;8.198;2023-07-28T01:00:58;0.10;;;0.10;;
47161;SDS011;32921;53.256;8.198;2023-07-28T01:03:24;3.53;;;1.35;;
47161;SDS011;32921;53.256;8.198;2023-07-28T01:08:46;0.55;;;0.55;;
47161;SDS011;32921;53.256;8.198;2023-07-28T01:11:21;1.00;;;0.65;;
47161;SDS011;32921;53.256;8.198;2023-07-28T01:13:46;0.50;;;0.28;;
47161;SDS011;32921;53.256;8.198;2023-07-28T01:16:12;0.55;;;0.45;;
47161;SDS011;32921;53.256;8.198;2023-07-28T01:18:37;0.13;;;0.13;;
47161;SDS011;32921;53.256;8.198;2023-07-28T01:21:04;0.47;;;0.40;;
47161;SDS011;32921;53.256;8.198;2023-07-28T01:26:10;0.55;;;0.52;;
47161;SDS011;32921;53.256;8.198;2023-07-28T01:28:37;0.77;;;0.63;;
47161;SDS011;32921;53.256;8.198;2023-07-28T01:31:06;0.10;;;0.10;;
47161;SDS011;32921;53.256;8.198;2023-07-28T01:33:33;0.80;;;0.55;;
47161;SDS011;32921;53.256;8.198;2023-07-28T01:35:59;0.38;;;0.38;;
47161;SDS011;32921;53.256;8.198;2023-07-28T01:38:27;1.23;;;1.00;;
47161;SDS011;32921;53.256;8.198;2023-07-28T01:40:53;0.47;;;0.40;;
47161;SDS011;32921;53.256;8.198;2023-07-28T01:43:19;0.35;;;0.35;;
47161;SDS011;32921;53.256;8.198;2023-07-28T01:45:45;0.35;;;0.35;;
47161;SDS011;32921;53.256;8.198;2023-07-28T01:48:10;0.60;;;0.60;;
47161;SDS011;32921;53.256;8.198;2023-07-28T01:50:36;0.47;;;0.40;;
47161;SDS011;32921;53.256;8.198;2023-07-28T01:53:02;0.30;;;0.30;;
47161;SDS011;32921;53.256;8.198;2023-07-28T01:55:28;1.55;;;0.85;;
47161;SDS011;32921;53.256;8.198;2023-07-28T01:57:55;0.30;;;0.30;;
47161;SDS011;32921;53.256;8.198;2023-07-28T02:00:22;0.73;;;0.40;;
47161;SDS011;32921;53.256;8.198;2023-07-28T02:02:49;0.38;;;0.38;;
47161;SDS011;32921;53.256;8.198;2023-07-28T02:05:14;0.50;;;0.50;;
47161;SDS011;32921;53.256;8.198;2023-07-28T02:07:41;0.65;;;0.65;;
47161;SDS011;32921;53.256;8.198;2023-07-28T02:10:06;0.80;;;0.80;;
47161;SDS011;32921;53.256;8.198;2023-07-28T02:12:32;4.65;;;0.98;;
47161;SDS011;32921;53.256;8.198;2023-07-28T02:14:58;1.35;;;1.23;;
47161;SDS011;32921;53.256;8.198;2023-07-28T02:17:23;0.38;;;0.38;;
47161;SDS011;32921;53.256;8.198;2023-07-28T02:19:49;0.73;;;0.60;;
47161;SDS011;32921;53.256;8.198;2023-07-28T02:22:14;0.50;;;0.50;;
47161;SDS011;32921;53.256;8.198;2023-07-28T02:24:40;2.15;;;1.30;;
47161;SDS011;32921;53.256;8.198;2023-07-28T02:27:05;0.63;;;0.63;;
47161;SDS011;32921;53.256;8.198;2023-07-28T02:29:31;0.47;;;0.47;;
47161;SDS011;32921;53.256;8.198;2023-07-28T02:31:56;0.55;;;0.55;;
47161;SDS011;32921;53.256;8.198;2023-07-28T02:34:22;0.10;;;0.10;;
47161;SDS011;32921;53.256;8.198;2023-07-28T02:36:47;0.20;;;0.20;;
47161;SDS011;32921;53.256;8.198;2023-07-28T02:39:13;1.88;;;0.55;;
47161;SDS011;32921;53.256;8.198;2023-07-28T02:41:39;0.80;;;0.63;;
47161;SDS011;32921;53.256;8.198;2023-07-28T02:44:04;1.40;;;0.60;;
47161;SDS011;32921;53.256;8.198;2023-07-28T02:46:30;0.30;;;0.30;;
47161;SDS011;32921;53.256;8.198;2023-07-28T02:48:55;0.40;;;0.40;;
47161;SDS011;32921;53.256;8.198;2023-07-28T02:51:21;0.63;;;0.60;;
47161;SDS011;32921;53.256;8.198;2023-07-28T02:53:46;0.38;;;0.38;;
47161;SDS011;32921;53.256;8.198;2023-07-28T02:56:12;0.10;;;0.10;;
47161;SDS011;32921;53.256;8.198;2023-07-28T02:58:37;0.20;;;0.20;;
47161;SDS011;32921;53.256;8.198;2023-07-28T03:01:03;3.30;;;0.52;;
47161;SDS011;32921;53.256;8.198;2023-07-28T03:03:29;0.65;;;0.55;;
47161;SDS011;32921;53.256;8.198;2023-07-28T03:05:55;0.47;;;0.45;;
47161;SDS011;32921;53.256;8.198;2023-07-28T03:08:21;1.08;;;0.70;;
47161;SDS011;32921;53.256;8.198;2023-07-28T03:10:46;0.17;;;0.17;;
47161;SDS011;32921;53.256;8.198;2023-07-28T03:13:12;0.65;;;0.32;;
47161;SDS011;32921;53.256;8.198;2023-07-28T03:15:38;2.17;;;1.02;;
47161;SDS011;32921;53.256;8.198;2023-07-28T03:18:03;6.60;;;1.23;;
47161;SDS011;32921;53.256;8.198;2023-07-28T03:20:29;2.28;;;0.90;;
47161;SDS011;32921;53.256;8.198;2023-07-28T03:22:55;0.50;;;0.50;;
47161;SDS011;32921;53.256;8.198;2023-07-28T03:25:20;0.20;;;0.20;;
47161;SDS011;32921;53.256;8.198;2023-07-28T03:27:46;0.85;;;0.52;;
47161;SDS011;32921;53.256;8.198;2023-07-28T03:30:11;1.85;;;1.00;;
47161;SDS011;32921;53.256;8.198;2023-07-28T03:32:37;0.30;;;0.30;;
47161;SDS011;32921;53.256;8.198;2023-07-28T03:35:03;0.22;;;0.22;;
47161;SDS011;32921;53.256;8.198;2023-07-28T03:37:30;0.47;;;0.47;;
47161;SDS011;32921;53.256;8.198;2023-07-28T03:39:57;0.98;;;0.57;;
47161;SDS011;32921;53.256;8.198;2023-07-28T03:42:22;0.30;;;0.30;;
47161;SDS011;32921;53.256;8.198;2023-07-28T03:44:48;0.47;;;0.47;;
47161;SDS011;32921;53.256;8.198;2023-07-28T03:47:14;0.60;;;0.32;;
47161;SDS011;32921;53.256;8.198;2023-07-28T03:49:39;0.63;;;0.45;;
47161;SDS011;32921;53.256;8.198;2023-07-28T03:52:05;0.10;;;0.10;;
47161;SDS011;32921;53.256;8.198;2023-07-28T03:54:30;0.10;;;0.10;;
47161;SDS011;32921;53.256;8.198;2023-07-28T03:56:56;0.65;;;0.52;;
47161;SDS011;32921;53.256;8.198;2023-07-28T03:59:22;0.20;;;0.20;;
47161;SDS011;32921;53.256;8.198;2023-07-28T04:01:47;0.00;;;0.00;;
47161;SDS011;32921;53.256;8.198;2023-07-28T04:04:13;0.20;;;0.20;;
47161;SDS011;32921;53.256;8.198;2023-07-28T04:06:39;0.30;;;0.30;;
47161;SDS011;32921;53.256;8.198;2023-07-28T04:09:06;0.15;;;0.15;;
47161;SDS011;32921;53.256;8.198;2023-07-28T04:11:32;1.27;;;0.60;;
47161;SDS011;32921;53.256;8.198;2023-07-28T04:13:57;0.43;;;0.43;;
47161;SDS011;32921;53.256;8.198;2023-07-28T04:16:23;0.88;;;0.73;;
47161;SDS011;32921;53.256;8.198;2023-07-28T04:18:48;1.55;;;0.30;;
47161;SDS011;32921;53.256;8.198;2023-07-28T04:21:14;0.20;;;0.20;;
47161;SDS011;32921;53.256;8.198;2023-07-28T04:23:39;0.10;;;0.10;;
47161;SDS011;32921;53.256;8.198;2023-07-28T04:26:06;0.25;;;0.25;;
47161;SDS011;32921;53.256;8.198;2023-07-28T04:28:31;0.10;;;0.10;;
47161;SDS011;32921;53.256;8.198;2023-07-28T04:30:57;0.85;;;0.73;;
47161;SDS011;32921;53.256;8.198;2023-07-28T04:33:22;0.13;;;0.13;;
47161;SDS011;32921;53.256;8.198;2023-07-28T04:35:48;0.13;;;0.13;;
47161;SDS011;32921;53.256;8.198;2023-07-28T04:38:13;0.10;;;0.10;;
47161;SDS011;32921;53.256;8.198;2023-07-28T04:40:39;0.30;;;0.30;;
47161;SDS011;32921;53.256;8.198;2023-07-28T04:43:04;0.15;;;0.15;;
47161;SDS011;32921;53.256;8.198;2023-07-28T04:45:30;0.55;;;0.40;;
47161;SDS011;32921;53.256;8.198;2023-07-28T04:47:55;1.23;;;0.57;;
47161;SDS011;32921;53.256;8.198;2023-07-28T04:50:21;0.75;;;0.70;;
47161;SDS011;32921;53.256;8.198;2023-07-28T04:52:46;0.55;;;0.55;;
47161;SDS011;32921;53.256;8.198;2023-07-28T04:55:12;0.10;;;0.10;;
47161;SDS011;32921;53.256;8.198;2023-07-28T04:57:38;0.10;;;0.10;;
47161;SDS011;32921;53.256;8.198;2023-07-28T05:00:03;0.35;;;0.35;;
47161;SDS011;32921;53.256;8.198;2023-07-28T05:02:30;0.40;;;0.20;;
47161;SDS011;32921;53.256;8.198;2023-07-28T05:04:55;2.38;;;0.60;;
47161;SDS011;32921;53.256;8.198;2023-07-28T05:07:21;0.22;;;0.22;;
47161;SDS011;32921;53.256;8.198;2023-07-28T05:09:46;0.52;;;0.43;;
47161;SDS011;32921;53.256;8.198;2023-07-28T05:12:12;0.35;;;0.30;;
47161;SDS011;32921;53.256;8.198;2023-07-28T05:14:38;1.02;;;0.85;;
47161;SDS011;32921;53.256;8.198;2023-07-28T05:17:04;1.00;;;0.32;;
47161;SDS011;32921;53.256;8.198;2023-07-28T05:19:29;0.25;;;0.20;;
47161;SDS011;32921;53.256;8.198;2023-07-28T05:21:55;2.28;;;0.57;;
47161;SDS011;32921;53.256;8.198;2023-07-28T05:24:20;0.40;;;0.40;;
47161;SDS011;32921;53.256;8.198;2023-07-28T05:26:46;0.20;;;0.20;;
47161;SDS011;32921;53.256;8.198;2023-07-28T05:29:11;0.10;;;0.10;;
47161;SDS011;32921;53.256;8.198;2023-07-28T05:31:37;0.82;;;0.43;;
47161;SDS011;32921;53.256;8.198;2023-07-28T05:34:03;0.20;;;0.20;;
47161;SDS011;32921;53.256;8.198;2023-07-28T05:36:29;1.80;;;0.95;;
47161;SDS011;32921;53.256;8.198;2023-07-28T05:38:55;0.30;;;0.20;;
47161;SDS011;32921;53.256;8.198;2023-07-28T05:41:21;0.10;;;0.10;;
47161;SDS011;32921;53.256;8.198;2023-07-28T05:43:47;1.33;;;0.32;;
47161;SDS011;32921;53.256;8.198;2023-07-28T05:46:13;0.40;;;0.40;;
47161;SDS011;32921;53.256;8.198;2023-07-28T05:48:39;1.85;;;0.88;;
47161;SDS011;32921;53.256;8.198;2023-07-28T05:51:04;0.45;;;0.38;;
47161;SDS011;32921;53.256;8.198;2023-07-28T05:53:30;1.20;;;0.60;;
47161;SDS011;32921;53.256;8.198;2023-07-28T05:55:55;0.10;;;0.10;;
47161;SDS011;32921;53.256;8.198;2023-07-28T05:58:21;0.80;;;0.80;;
47161;SDS011;32921;53.256;8.198;2023-07-28T06:00:47;0.82;;;0.45;;
47161;SDS011;32921;53.256;8.198;2023-07-28T06:03:13;0.10;;;0.10;;
47161;SDS011;32921;53.256;8.198;2023-07-28T06:05:39;0.10;;;0.10;;
47161;SDS011;32921;53.256;8.198;2023-07-28T06:08:05;0.60;;;0.60;;
47161;SDS011;32921;53.256;8.198;2023-07-28T06:10:31;0.32;;;0.32;;
47161;SDS011;32921;53.256;8.198;2023-07-28T06:12:57;2.88;;;0.43;;
47161;SDS011;32921;53.256;8.198;2023-07-28T06:15:23;0.70;;;0.55;;
47161;SDS011;32921;53.256;8.198;2023-07-28T06:17:48;1.90;;;1.35;;
47161;SDS011;32921;53.256;8.198;2023-07-28T06:20:14;0.43;;;0.43;;
47161;SDS011;32921;53.256;8.198;2023-07-28T06:22:40;1.08;;;0.85;;
47161;SDS011;32921;53.256;8.198;2023-07-28T06:25:05;5.78;;;1.08;;
47161;SDS011;32921;53.256;8.198;2023-07-28T06:27:32;0.82;;;0.68;;
47161;SDS011;32921;53.256;8.198;2023-07-28T06:29:57;2.50;;;1.17;;
47161;SDS011;32921;53.256;8.198;2023-07-28T06:32:23;0.63;;;0.63;;
47161;SDS011;32921;53.256;8.198;2023-07-28T06:34:49;0.40;;;0.40;;
47161;SDS011;32921;53.256;8.198;2023-07-28T06:37:15;1.00;;;0.65;;
47161;SDS011;32921;53.256;8.198;2023-07-28T06:39:40;6.63;;;0.60;;
47161;SDS011;32921;53.256;8.198;2023-07-28T06:42:07;0.73;;;0.73;;
47161;SDS011;32921;53.256;8.198;2023-07-28T06:44:32;1.60;;;0.98;;
47161;SDS011;32921;53.256;8.198;2023-07-28T06:46:58;1.15;;;0.70;;
47161;SDS011;32921;53.256;8.198;2023-07-28T06:49:23;0.80;;;0.80;;
47161;SDS011;32921;53.256;8.198;2023-07-28T06:51:49;1.13;;;1.02;;
47161;SDS011;32921;53.256;8.198;2023-07-28T06:54:14;1.60;;;1.00;;
47161;SDS011;32921;53.256;8.198;2023-07-28T06:56:40;0.45;;;0.45;;
47161;SDS011;32921;53.256;8.198;2023-07-28T06:59:06;0.55;;;0.55;;
47161;SDS011;32921;53.256;8.198;2023-07-28T07:01:32;2.78;;;1.23;;
47161;SDS011;32921;53.256;8.198;2023-07-28T07:03:58;0.08;;;0.08;;
47161;SDS011;32921;53.256;8.198;2023-07-28T07:06:24;0.20;;;0.20;;
47161;SDS011;32921;53.256;8.198;2023-07-28T07:08:50;0.47;;;0.22;;
47161;SDS011;32921;53.256;8.198;2023-07-28T07:11:15;0.20;;;0.20;;
47161;SDS011;32921;53.256;8.198;2023-07-28T07:13:41;0.10;;;0.10;;
47161;SDS011;32921;53.256;8.198;2023-07-28T07:16:14;0.40;;;0.40;;
47161;SDS011;32921;53.256;8.198;2023-07-28T07:18:41;0.40;;;0.40;;
47161;SDS011;32921;53.256;8.198;2023-07-28T07:21:08;0.45;;;0.45;;
47161;SDS011;32921;53.256;8.198;2023-07-28T07:23:34;1.17;;;0.68;;
47161;SDS011;32921;53.256;8.198;2023-07-28T07:25:59;0.70;;;0.70;;
47161;SDS011;32921;53.256;8.198;2023-07-28T07:28:25;0.63;;;0.57;;
47161;SDS011;32921;53.256;8.198;2023-07-28T07:30:50;1.92;;;0.82;;
47161;SDS011;32921;53.256;8.198;2023-07-28T07:33:16;0.47;;;0.47;;
47161;SDS011;32921;53.256;8.198;2023-07-28T07:35:41;0.52;;;0.52;;
47161;SDS011;32921;53.256;8.198;2023-07-28T07:38:07;0.35;;;0.35;;
47161;SDS011;32921;53.256;8.198;2023-07-28T07:40:34;2.47;;;1.60;;
47161;SDS011;32921;53.256;8.198;2023-07-28T07:43:01;1.25;;;0.93;;
47161;SDS011;32921;53.256;8.198;2023-07-28T07:45:28;4.25;;;0.93;;
47161;SDS011;32921;53.256;8.198;2023-07-28T07:47:57;1.08;;;0.68;;
47161;SDS011;32921;53.256;8.198;2023-07-28T07:50:23;0.80;;;0.73;;
47161;SDS011;32921;53.256;8.198;2023-07-28T07:52:49;0.17;;;0.17;;
47161;SDS011;32921;53.256;8.198;2023-07-28T07:55:14;1.67;;;1.00;;
47161;SDS011;32921;53.256;8.198;2023-07-28T07:57:40;0.55;;;0.55;;
47161;SDS011;32921;53.256;8.198;2023-07-28T08:00:06;7.88;;;0.77;;
47161;SDS011;32921;53.256;8.198;2023-07-28T08:02:33;0.20;;;0.20;;
47161;SDS011;32921;53.256;8.198;2023-07-28T08:04:59;0.30;;;0.30;;
47161;SDS011;32921;53.256;8.198;2023-07-28T08:07:25;0.63;;;0.52;;
47161;SDS011;32921;53.256;8.198;2023-07-28T08:09:50;0.95;;;0.70;;
47161;SDS011;32921;53.256;8.198;2023-07-28T08:12:16;0.10;;;0.10;;
47161;SDS011;32921;53.256;8.198;2023-07-28T08:14:42;1.85;;;1.33;;
47161;SDS011;32921;53.256;8.198;2023-07-28T08:17:10;0.47;;;0.25;;
47161;SDS011;32921;53.256;8.198;2023-07-28T08:19:36;0.10;;;0.10;;
47161;SDS011;32921;53.256;8.198;2023-07-28T08:22:02;0.20;;;0.20;;
47161;SDS011;32921;53.256;8.198;2023-07-28T08:24:31;0.10;;;0.10;;
47161;SDS011;32921;53.256;8.198;2023-07-28T08:26:57;0.30;;;0.30;;
47161;SDS011;32921;53.256;8.198;2023-07-28T08:29:22;0.93;;;0.25;;
47161;SDS011;32921;53.256;8.198;2023-07-28T08:31:48;0.20;;;0.10;;
47161;SDS011;32921;53.256;8.198;2023-07-28T08:34:13;0.65;;;0.40;;
47161;SDS011;32921;53.256;8.198;2023-07-28T08:36:40;0.25;;;0.25;;
47161;SDS011;32921;53.256;8.198;2023-07-28T08:39:06;0.10;;;0.10;;
47161;SDS011;32921;53.256;8.198;2023-07-28T08:41:31;0.00;;;0.00;;
47161;SDS011;32921;53.256;8.198;2023-07-28T08:43:57;0.22;;;0.15;;
47161;SDS011;32921;53.256;8.198;2023-07-28T08:46:23;0.25;;;0.25;;
47161;SDS011;32921;53.256;8.198;2023-07-28T08:48:49;0.08;;;0.08;;
47161;SDS011;32921;53.256;8.198;2023-07-28T08:51:14;0.00;;;0.00;;
47161;SDS011;32921;53.256;8.198;2023-07-28T08:53:40;0.30;;;0.20;;
47161;SDS011;32921;53.256;8.198;2023-07-28T08:56:06;0.35;;;0.25;;
47161;SDS011;32921;53.256;8.198;2023-07-28T08:58:32;0.20;;;0.20;;
47161;SDS011;32921;53.256;8.198;2023-07-28T09:00:58;0.38;;;0.20;;
47161;SDS011;32921;53.256;8.198;2023-07-28T09:03:26;0.03;;;0.03;;
47161;SDS011;32921;53.256;8.198;2023-07-28T09:05:54;0.45;;;0.25;;
47161;SDS011;32921;53.256;8.198;2023-07-28T09:08:27;0.00;;;0.00;;
47161;SDS011;32921;53.256;8.198;2023-07-28T09:10:55;0.30;;;0.30;;
47161;SDS011;32921;53.256;8.198;2023-07-28T09:13:21;0.25;;;0.08;;
47161;SDS011;32921;53.256;8.198;2023-07-28T09:15:46;0.60;;;0.40;;
47161;SDS011;32921;53.256;8.198;2023-07-28T09:18:14;0.65;;;0.43;;
47161;SDS011;32921;53.256;8.198;2023-07-28T09:20:41;0.00;;;0.00;;
47161;SDS011;32921;53.256;8.198;2023-07-28T09:23:08;0.25;;;0.15;;
47161;SDS011;32921;53.256;8.198;2023-07-28T09:25:34;0.20;;;0.10;;
47161;SDS011;32921;53.256;8.198;2023-07-28T09:28:01;0.30;;;0.13;;
47161;SDS011;32921;53.256;8.198;2023-07-28T09:30:27;0.28;;;0.20;;
47161;SDS011;32921;53.256;8.198;2023-07-28T09:33:07;0.20;;;0.10;;
47161;SDS011;32921;53.256;8.198;2023-07-28T09:35:33;2.08;;;0.57;;
47161;SDS011;32921;53.256;8.198;2023-07-28T09:37:59;0.10;;;0.10;;
47161;SDS011;32921;53.256;8.198;2023-07-28T09:40:24;0.65;;;0.47;;
47161;SDS011;32921;53.256;8.198;2023-07-28T09:42:52;0.25;;;0.00;;
47161;SDS011;32921;53.256;8.198;2023-07-28T09:45:19;0.20;;;0.20;;
47161;SDS011;32921;53.256;8.198;2023-07-28T09:47:47;0.45;;;0.30;;
47161;SDS011;32921;53.256;8.198;2023-07-28T09:50:17;0.10;;;0.10;;
47161;SDS011;32921;53.256;8.198;2023-07-28T09:52:48;0.10;;;0.10;;
47161;SDS011;32921;53.256;8.198;2023-07-28T09:55:18;0.08;;;0.08;;
47161;SDS011;32921;53.256;8.198;2023-07-28T09:57:45;0.20;;;0.10;;
47161;SDS011;32921;53.256;8.198;2023-07-28T10:00:22;0.10;;;0.10;;
47161;SDS011;32921;53.256;8.198;2023-07-28T10:02:49;0.15;;;0.15;;
47161;SDS011;32921;53.256;8.198;2023-07-28T10:05:15;0.00;;;0.00;;
47161;SDS011;32921;53.256;8.198;2023-07-28T10:07:42;0.10;;;0.10;;
47161;SDS011;32921;53.256;8.198;2023-07-28T10:10:09;0.20;;;0.10;;
47161;SDS011;32921;53.256;8.198;2023-07-28T10:12:55;0.10;;;0.10;;
47161;SDS011;32921;53.256;8.198;2023-07-28T10:15:27;0.00;;;0.00;;
47161;SDS011;32921;53.256;8.198;2023-07-28T10:17:55;0.20;;;0.20;;
47161;SDS011;32921;53.256;8.198;2023-07-28T10:20:35;0.00;;;0.00;;
47161;SDS011;32921;53.256;8.198;2023-07-28T10:23:04;0.00;;;0.00;;
47161;SDS011;32921;53.256;8.198;2023-07-28T10:25:36;0.00;;;0.00;;
47161;SDS011;32921;53.256;8.198;2023-07-28T10:28:03;0.47;;;0.25;;
47161;SDS011;32921;53.256;8.198;2023-07-28T10:30:50;0.03;;;0.03;;
47161;SDS011;32921;53.256;8.198;2023-07-28T10:33:31;0.20;;;0.20;;
47161;SDS011;32921;53.256;8.198;2023-07-28T10:35:58;0.43;;;0.25;;
47161;SDS011;32921;53.256;8.198;2023-07-28T10:39:01;0.20;;;0.05;;
47161;SDS011;32921;53.256;8.198;2023-07-28T10:41:28;0.10;;;0.10;;
47161;SDS011;32921;53.256;8.198;2023-07-28T10:43:54;0.10;;;0.10;;
47161;SDS011;32921;53.256;8.198;2023-07-28T10:46:20;0.00;;;0.00;;
47161;SDS011;32921;53.256;8.198;2023-07-28T10:48:47;0.32;;;0.05;;
47161;SDS011;32921;53.256;8.198;2023-07-28T10:51:23;0.00;;;0.00;;
47161;SDS011;32921;53.256;8.198;2023-07-28T10:53:56;1.13;;;0.70;;
47161;SDS011;32921;53.256;8.198;2023-07-28T10:56:23;2.80;;;0.20;;
47161;SDS011;32921;53.256;8.198;2023-07-28T10:58:58;0.08;;;0.08;;
47161;SDS011;32921;53.256;8.198;2023-07-28T11:01:32;0.15;;;0.10;;
47161;SDS011;32921;53.256;8.198;2023-07-28T11:04:09;0.20;;;0.20;;
47161;SDS011;32921;53.256;8.198;2023-07-28T11:06:40;0.15;;;0.15;;
47161;SDS011;32921;53.256;8.198;2023-07-28T11:11:34;0.38;;;0.10;;
47161;SDS011;32921;53.256;8.198;2023-07-28T11:14:07;0.10;;;0.10;;
47161;SDS011;32921;53.256;8.198;2023-07-28T11:16:34;0.10;;;0.10;;
47161;SDS011;32921;53.256;8.198;2023-07-28T11:19:01;0.00;;;0.00;;
47161;SDS011;32921;53.256;8.198;2023-07-28T11:21:28;0.10;;;0.10;;
47161;SDS011;32921;53.256;8.198;2023-07-28T11:23:53;0.25;;;0.25;;
47161;SDS011;32921;53.256;8.198;2023-07-28T11:26:20;0.20;;;0.20;;
47161;SDS011;32921;53.256;8.198;2023-07-28T11:28:47;0.43;;;0.32;;
47161;SDS011;32921;53.256;8.198;2023-07-28T11:31:13;0.20;;;0.20;;
47161;SDS011;32921;53.256;8.198;2023-07-28T11:33:39;0.30;;;0.30;;
47161;SDS011;32921;53.256;8.198;2023-07-28T11:36:05;3.75;;;1.45;;
47161;SDS011;32921;53.256;8.198;2023-07-28T11:38:31;0.20;;;0.20;;
47161;SDS011;32921;53.256;8.198;2023-07-28T11:40:58;0.52;;;0.15;;
47161;SDS011;32921;53.256;8.198;2023-07-28T11:43:25;0.35;;;0.13;;
47161;SDS011;32921;53.256;8.198;2023-07-28T11:45:51;0.17;;;0.15;;
47161;SDS011;32921;53.256;8.198;2023-07-28T11:48:16;0.00;;;0.00;;
47161;SDS011;32921;53.256;8.198;2023-07-28T11:50:43;0.00;;;0.00;;
47161;SDS011;32921;53.256;8.198;2023-07-28T11:53:09;1.08;;;0.08;;
47161;SDS011;32921;53.256;8.198;2023-07-28T11:55:36;0.08;;;0.08;;
47161;SDS011;32921;53.256;8.198;2023-07-28T11:58:04;0.10;;;0.10;;
47161;SDS011;32921;53.256;8.198;2023-07-28T12:00:34;0.35;;;0.17;;
47161;SDS011;32921;53.256;8.198;2023-07-28T12:03:05;0.10;;;0.00;;
47161;SDS011;32921;53.256;8.198;2023-07-28T12:05:36;0.00;;;0.00;;
47161;SDS011;32921;53.256;8.198;2023-07-28T12:08:03;0.10;;;0.10;;
47161;SDS011;32921;53.256;8.198;2023-07-28T12:10:29;0.40;;;0.13;;
47161;SDS011;32921;53.256;8.198;2023-07-28T12:12:56;0.00;;;0.00;;
47161;SDS011;32921;53.256;8.198;2023-07-28T12:15:26;0.08;;;0.00;;
47161;SDS011;32921;53.256;8.198;2023-07-28T12:18:06;0.45;;;0.20;;
47161;SDS011;32921;53.256;8.198;2023-07-28T12:23:06;0.00;;;0.00;;
47161;SDS011;32921;53.256;8.198;2023-07-28T12:25:33;0.20;;;0.20;;
47161;SDS011;32921;53.256;8.198;2023-07-28T12:28:01;0.75;;;0.25;;
47161;SDS011;32921;53.256;8.198;2023-07-28T12:30:27;0.00;;;0.00;;
47161;SDS011;32921;53.256;8.198;2023-07-28T12:32:53;0.05;;;0.03;;
47161;SDS011;32921;53.256;8.198;2023-07-28T12:35:19;0.40;;;0.40;;
47161;SDS011;32921;53.256;8.198;2023-07-28T12:37:48;0.55;;;0.25;;
47161;SDS011;32921;53.256;8.198;2023-07-28T12:40:17;0.30;;;0.30;;
47161;SDS011;32921;53.256;8.198;2023-07-28T12:42:44;0.00;;;0.00;;
47161;SDS011;32921;53.256;8.198;2023-07-28T12:45:10;2.33;;;0.95;;
47161;SDS011;32921;53.256;8.198;2023-07-28T12:47:36;5.53;;;2.13;;
47161;SDS011;32921;53.256;8.198;2023-07-28T12:50:01;4.03;;;1.80;;
47161;SDS011;32921;53.256;8.198;2023-07-28T12:52:27;2.40;;;1.77;;
47161;SDS011;32921;53.256;8.198;2023-07-28T12:54:54;3.97;;;1.90;;
47161;SDS011;32921;53.256;8.198;2023-07-28T12:57:19;3.03;;;2.10;;
47161;SDS011;32921;53.256;8.198;2023-07-28T12:59:45;3.08;;;2.00;;
47161;SDS011;32921;53.256;8.198;2023-07-28T13:02:11;3.78;;;1.70;;
47161;SDS011;32921;53.256;8.198;2023-07-28T13:04:36;3.35;;;1.33;;
47161;SDS011;32921;53.256;8.198;2023-07-28T13:07:02;3.28;;;1.60;;
47161;SDS011;32921;53.256;8.198;2023-07-28T13:09:28;1.60;;;1.40;;
47161;SDS011;32921;53.256;8.198;2023-07-28T13:11:53;2.97;;;1.58;;
47161;SDS011;32921;53.256;8.198;2023-07-28T13:14:19;3.92;;;1.30;;
47161;SDS011;32921;53.256;8.198;2023-07-28T13:16:45;3.92;;;1.38;;
47161;SDS011;32921;53.256;8.198;2023-07-28T13:19:10;2.75;;;1.48;;
47161;SDS011;32921;53.256;8.198;2023-07-28T13:21:36;1.55;;;1.10;;
47161;SDS011;32921;53.256;8.198;2023-07-28T13:24:02;4.22;;;1.02;;
47161;SDS011;32921;53.256;8.198;2023-07-28T13:26:28;3.17;;;1.35;;
47161;SDS011;32921;53.256;8.198;2023-07-28T13:28:53;1.88;;;1.13;;
47161;SDS011;32921;53.256;8.198;2023-07-28T13:31:21;2.22;;;1.10;;
47161;SDS011;32921;53.256;8.198;2023-07-28T13:33:47;2.58;;;1.05;;
47161;SDS011;32921;53.256;8.198;2023-07-28T13:36:12;2.00;;;1.00;;
47161;SDS011;32921;53.256;8.198;2023-07-28T13:38:38;1.50;;;1.00;;
47161;SDS011;32921;53.256;8.198;2023-07-28T13:41:05;1.20;;;0.95;;
47161;SDS011;32921;53.256;8.198;2023-07-28T13:43:34;1.70;;;1.10;;
47161;SDS011;32921;53.256;8.198;2023-07-28T13:46:02;1.77;;;1.05;;
47161;SDS011;32921;53.256;8.198;2023-07-28T13:48:29;1.83;;;1.10;;
47161;SDS011;32921;53.256;8.198;2023-07-28T13:50:55;1.65;;;1.10;;
47161;SDS011;32921;53.256;8.198;2023-07-28T13:53:21;2.30;;;1.05;;
47161;SDS011;32921;53.256;8.198;2023-07-28T13:55:47;3.83;;;1.20;;
47161;SDS011;32921;53.256;8.198;2023-07-28T13:58:12;3.80;;;1.25;;
47161;SDS011;32921;53.256;8.198;2023-07-28T14:00:38;4.70;;;1.33;;
47161;SDS011;32921;53.256;8.198;2023-07-28T14:03:03;1.75;;;1.17;;
47161;SDS011;32921;53.256;8.198;2023-07-28T14:05:29;2.05;;;1.30;;
47161;SDS011;32921;53.256;8.198;2023-07-28T14:07:55;2.30;;;1.42;;
47161;SDS011;32921;53.256;8.198;2023-07-28T14:10:20;1.75;;;1.10;;
47161;SDS011;32921;53.256;8.198;2023-07-28T14:12:46;2.08;;;1.20;;
47161;SDS011;32921;53.256;8.198;2023-07-28T14:15:11;2.97;;;1.20;;
47161;SDS011;32921;53.256;8.198;2023-07-28T14:17:37;3.80;;;1.10;;
47161;SDS011;32921;53.256;8.198;2023-07-28T14:20:03;3.47;;;1.10;;
47161;SDS011;32921;53.256;8.198;2023-07-28T14:22:29;2.60;;;1.30;;
47161;SDS011;32921;53.256;8.198;2023-07-28T14:24:55;2.22;;;1.17;;
47161;SDS011;32921;53.256;8.198;2023-07-28T14:27:20;2.97;;;1.45;;
47161;SDS011;32921;53.256;8.198;2023-07-28T14:29:46;5.95;;;1.40;;
47161;SDS011;32921;53.256;8.198;2023-07-28T14:32:12;2.95;;;1.40;;
47161;SDS011;32921;53.256;8.198;2023-07-28T14:34:38;4.68;;;1.60;;
47161;SDS011;32921;53.256;8.198;2023-07-28T14:37:04;2.25;;;1.40;;
47161;SDS011;32921;53.256;8.198;2023-07-28T14:39:30;2.65;;;1.40;;
47161;SDS011;32921;53.256;8.198;2023-07-28T14:41:56;3.30;;;1.40;;
47161;SDS011;32921;53.256;8.198;2023-07-28T14:44:23;2.42;;;1.13;;
47161;SDS011;32921;53.256;8.198;2023-07-28T14:46:48;4.10;;;1.33;;
47161;SDS011;32921;53.256;8.198;2023-07-28T14:49:15;1.58;;;1.10;;
47161;SDS011;32921;53.256;8.198;2023-07-28T14:51:41;2.50;;;1.10;;
47161;SDS011;32921;53.256;8.198;2023-07-28T14:54:07;1.70;;;1.33;;